Detalii statie COMAGRA BEREGSAU [00001994]

Toti senzorii

Date Temperatura solului [C]Precipitatii [mm]Voltaj baterie [mV]Leaf Wetness [Min]HC Air temperature [C]HC Relative humidity [%]Punctul de roua [C]
medieminmaxsumaultimatimpmedieminmaxmediemediemin
2020-06-02 08:00:00 14.1 14 14.4 0 6816 10.88 10.45 11.3 100 10.8 10.4
2020-06-02 09:00:00 14 13.9 14.2 0 6914 11.52 11.16 12.25 100 11.4 11.1
2020-06-02 10:00:00 13.9 13.9 14 0 7060 12.66 12.23 13.95 96.03 11.9 11.3
2020-06-02 11:00:00 13.9 13.8 14.2 0 7088 15.55 13.82 17.36 64.19 8.3 4.6
2020-06-02 12:00:00 14.2 14 14.4 0 7060 17.9 17.42 18.41 43.78 5.1 4.5
2020-06-02 13:00:00 14.2 14.2 14.4 0 7196 18.83 18.11 19.48 42.11 5.5 5
2020-06-02 14:00:00 14.4 14.3 14.9 0 7186 19.67 18.49 20.85 40.72 5.7 4.9
2020-06-02 15:00:00 15.5 14.9 16.2 0 7176 20.21 19.34 21.28 40.22 6 5.4
2020-06-02 16:00:00 16.7 16.2 17.2 0 7186 19.31 18.95 19.88 41.94 5.8 5.2
2020-06-02 17:00:00 17.3 17.1 17.5 0 7176 18.57 17.8 19.2 46.87 6.7 5.5
2020-06-02 18:00:00 17.5 17.4 17.6 0 7186 18.54 17.62 20.13 51.39 8.1 7.3
2020-06-02 19:00:00 17.6 17.6 17.9 0 7196 18.47 17.62 19.62 58.2 9.9 8.3
2020-06-02 20:00:00 17.9 17.8 18 0 7186 17.67 17.01 18.32 57.97 9.1 8.8
2020-06-02 21:00:00 17.9 17.8 18.1 0 7020 15.98 14.58 16.98 66.78 9.6 9.1
2020-06-02 22:00:00 17.5 17.3 17.7 0 6826 12.83 11.52 14.25 91.48 11.2 10.4
2020-06-02 23:00:00 17 16.8 17.4 0 6806 10.91 10.51 11.42 100 10.8 10.5
2020-06-03 00:00:00 16.4 16.2 16.7 0 6806 10.22 9.76 10.68 100 10.1 9.7
2020-06-03 01:00:00 15.9 15.7 16.3 0 6786 9.62 9.41 9.79 100 9.5 9.4
2020-06-03 02:00:00 15.4 15.2 15.8 0 6786 9.52 9.07 9.75 100 9.4 9
2020-06-03 03:00:00 15 14.7 15.2 0 6786 8.96 8.15 9.21 100 8.9 8.1
2020-06-03 04:00:00 14.6 14.2 14.9 0 6766 7.66 7.44 7.99 100 7.6 7.4
2020-06-03 05:00:00 14.2 14 14.4 0 6756 6.63 6.16 7.33 100 6.5 6.1
2020-06-03 06:00:00 13.8 13.6 14.2 0 6756 6.67 6.34 7.26 100 6.6 6.3
2020-06-03 07:00:00 13.5 13.4 13.7 0 6776 7.41 6.82 7.91 100 7.3 6.8
2020-06-03 08:00:00 13.2 13.1 13.4 0 6874 8.66 7.94 9.92 100 8.6 7.9
2020-06-03 09:00:00 13.1 13 13.3 0 7010 11.91 10.21 13.12 100 11.8 10.2
2020-06-03 10:00:00 13.2 13 13.4 0 7020 14.1 12.78 15.27 99.8 14 12.7
2020-06-03 11:00:00 13.3 13.2 13.5 0 7040 16.32 15.33 17.23 89.11 14.3 13.8
2020-06-03 12:00:00 13.4 13.3 13.6 0 7128 18.39 17.57 19.24 67.22 11.9 10.4
2020-06-03 13:00:00 13.7 13.6 14 0 7186 20.24 19.19 21.02 55.46 10.8 9.9
2020-06-03 14:00:00 14.2 14 14.7 0 7196 20.36 19.27 22.04 57.32 11.4 10.7
2020-06-03 15:00:00 15.2 14.6 15.9 0 7206 21.85 21.24 22.37 51.5 11.2 10.5
2020-06-03 16:00:00 16.7 16 17.5 0 7196 22.67 21.66 23.37 48.01 10.8 9.5
2020-06-03 17:00:00 18.2 17.6 18.8 0 7176 22.24 20.98 23.02 53.97 12.3 11.6
2020-06-03 18:00:00 19 18.8 19.3 0 7176 21.48 20.99 22.42 55.14 11.9 11.5
2020-06-03 19:00:00 19.2 19.2 19.3 0 6972 20.97 18.22 21.85 55.99 11.6 11
2020-06-03 20:00:00 19 18.9 19.3 3.8 6844 16.42 14.29 17.82 77.49 12.2 11.1
2020-06-03 21:00:00 18.6 18.2 18.9 3.6 6826 13.84 13.4 14.12 100 13.8 13.4
2020-06-03 22:00:00 17.9 17.5 18.3 0 6806 12.85 12.37 13.38 100 12.8 12.3
2020-06-03 23:00:00 17.2 17 17.6 0 6786 12.29 12.03 12.48 100 12.2 12
2020-06-04 00:00:00 16.6 16.3 17 0 6786 12.41 12.29 12.52 100 12.3 12.2
2020-06-04 01:00:00 16 15.7 16.4 0 6766 11.94 11.35 12.3 100 11.8 11.3
2020-06-04 02:00:00 15.6 15.4 15.9 0 6766 11.1 10.91 11.35 100 11 10.9
2020-06-04 03:00:00 15.1 14.9 15.4 0 6756 10.94 10.8 11.06 100 10.9 10.8
2020-06-04 04:00:00 14.8 14.6 15 0 6756 10.59 10.39 10.81 100 10.5 10.3
2020-06-04 05:00:00 14.4 14.3 14.7 0.2 6748 10.53 10.4 10.62 100 10.4 10.4
2020-06-04 06:00:00 14.1 13.9 14.3 0 6748 9.7 9.34 10.24 100 9.6 9.3
2020-06-04 07:00:00 13.7 13.7 13.9 0 6766 10.17 9.91 10.52 100 10.1 9.9